Time;durP1;ratioP1;P1;durP2;ratioP2;P2;SDS_P1;SDS_P2;PMS_P1;PMS_P2;Temp;Humidity;BMP_temperature;BMP_pressure;BME280_temperature;BME280_humidity;BME280_pressure;Samples;Min_cycle;Max_cycle;Signal;HPM_P1;HPM_P2
2022/11/28 00:01:23;;;;;;;11.75;9.23;;;;;;;17.20;51.74;101754.28;4900927;29;20064;-79
2022/11/28 00:03:51;;;;;;;13.15;9.82;;;;;;;17.20;51.67;101749.78;4902557;29;20051;-79
2022/11/28 00:06:19;;;;;;;10.73;9.15;;;;;;;17.20;51.68;101743.59;4902514;29;20041;-79
2022/11/28 00:08:47;;;;;;;11.45;9.48;;;;;;;17.20;51.69;101746.25;4901023;29;20064;-79
2022/11/28 00:11:15;;;;;;;12.02;9.50;;;;;;;17.20;51.63;101754.28;4902199;29;20485;-80
2022/11/28 00:13:44;;;;;;;11.70;9.52;;;;;;;17.19;51.64;101741.88;4902878;29;20052;-80
2022/11/28 00:16:19;;;;;;;12.32;9.75;;;;;;;17.18;51.57;101738.34;4901919;29;20056;-78
2022/11/28 00:18:48;;;;;;;11.20;8.68;;;;;;;17.18;51.51;101741.00;4903140;29;20397;-79
2022/11/28 00:21:15;;;;;;;10.82;8.55;;;;;;;17.17;51.51;101733.91;4902721;29;20052;-79
2022/11/28 00:23:45;;;;;;;9.13;8.23;;;;;;;17.17;51.49;101733.06;4901961;29;20049;-79
2022/11/28 00:26:26;;;;;;;12.80;9.57;;;;;;;17.17;51.66;101733.06;4901967;29;20493;-79
2022/11/28 00:28:55;;;;;;;11.38;8.90;;;;;;;17.17;51.59;101733.06;4902538;29;20504;-79
2022/11/28 00:31:25;;;;;;;10.88;9.35;;;;;;;17.16;51.34;101732.22;4894344;29;20055;-79
2022/11/28 00:33:53;;;;;;;10.95;9.15;;;;;;;17.16;51.38;101731.34;4884828;29;20056;-80
2022/11/28 00:36:21;;;;;;;10.88;8.85;;;;;;;17.16;51.39;101731.34;4901914;29;20410;-79
2022/11/28 00:38:49;;;;;;;10.13;8.88;;;;;;;17.16;51.31;101734.88;4901699;29;20056;-79
2022/11/28 00:41:20;;;;;;;11.02;8.68;;;;;;;17.14;51.56;101734.13;4901628;29;20044;-79
2022/11/28 00:43:49;;;;;;;10.00;8.52;;;;;;;17.14;51.40;101728.78;4901848;29;20045;-79
2022/11/28 00:46:18;;;;;;;9.93;8.93;;;;;;;17.14;51.18;101734.13;4901799;29;20056;-79
2022/11/28 00:48:45;;;;;;;11.85;9.55;;;;;;;17.14;51.33;101733.28;4885178;29;20055;-79
2022/11/28 00:51:17;;;;;;;10.07;8.90;;;;;;;17.14;51.46;101728.78;4885364;29;20045;-80
2022/11/28 00:53:46;;;;;;;9.70;8.38;;;;;;;17.14;51.42;101727.94;4901544;29;20052;-79
2022/11/28 00:56:17;;;;;;;10.32;8.80;;;;;;;17.13;51.38;101732.38;4900453;29;20080;-78
2022/11/28 00:58:46;;;;;;;10.65;9.55;;;;;;;17.12;51.48;101736.03;4901014;29;20048;-80
2022/11/28 01:01:17;;;;;;;9.95;8.93;;;;;;;17.14;51.26;101741.31;4901408;29;20051;-80
2022/11/28 01:03:46;;;;;;;10.25;9.07;;;;;;;17.13;51.38;101727.03;4900650;29;20469;-80
2022/11/28 01:06:23;;;;;;;10.93;9.20;;;;;;;17.13;51.33;101731.53;4901724;29;20071;-79
2022/11/28 01:08:51;;;;;;;11.00;8.65;;;;;;;17.12;51.49;101719.97;4901079;29;20056;-79
2022/11/28 01:11:18;;;;;;;10.10;8.88;;;;;;;17.13;51.59;101711.00;4901938;29;20469;-79
2022/11/28 01:13:46;;;;;;;10.07;8.52;;;;;;;17.12;51.44;101714.63;4901131;29;20048;-80
2022/11/28 01:16:14;;;;;;;10.27;9.18;;;;;;;17.12;51.61;101716.44;4901103;29;20044;-79
2022/11/28 01:18:41;;;;;;;9.95;8.32;;;;;;;17.11;51.43;101715.59;4901266;29;20076;-79
2022/11/28 01:21:09;;;;;;;11.38;9.27;;;;;;;17.12;51.47;101711.09;4900919;29;20060;-79
2022/11/28 01:23:36;;;;;;;11.77;8.93;;;;;;;17.11;51.44;101704.88;4901075;29;20048;-79
2022/11/28 01:26:06;;;;;;;12.50;8.90;;;;;;;17.11;51.56;101704.88;4900827;29;20048;-79
2022/11/28 01:28:34;;;;;;;10.52;8.68;;;;;;;17.10;51.44;101696.97;4901272;29;20049;-79
2022/11/28 01:31:14;;;;;;;10.20;8.45;;;;;;;17.08;51.57;101707.75;4900666;29;20056;-78
2022/11/28 01:33:42;;;;;;;11.82;8.63;;;;;;;17.10;51.45;101702.31;4901399;29;20051;-79
2022/11/28 01:36:11;;;;;;;10.68;8.88;;;;;;;17.09;51.59;101704.09;4899567;29;20048;-79
2022/11/28 01:38:39;;;;;;;10.57;8.90;;;;;;;17.10;51.58;101691.63;4901109;29;20075;-79
2022/11/28 01:41:07;;;;;;;9.55;8.07;;;;;;;17.09;51.61;101684.53;4900527;29;20052;-79
2022/11/28 01:43:35;;;;;;;10.02;8.63;;;;;;;17.08;51.37;101686.34;4883706;29;20053;-79
2022/11/28 01:46:04;;;;;;;10.05;8.52;;;;;;;17.08;51.63;101677.47;4900239;29;20069;-79
2022/11/28 01:48:38;;;;;;;10.45;8.82;;;;;;;17.09;51.34;101679.19;4900876;29;20048;-78
2022/11/28 01:51:08;;;;;;;9.38;8.38;;;;;;;17.09;51.56;101681.84;4901066;29;20052;-79
2022/11/28 01:53:40;;;;;;;10.18;7.82;;;;;;;17.08;51.59;101672.13;4901508;29;20497;-79
2022/11/28 01:56:30;;;;;;;9.38;7.90;;;;;;;17.07;51.37;101671.25;4901415;29;20052;-79
2022/11/28 01:59:03;;;;;;;11.93;8.27;;;;;;;17.08;51.45;101670.28;4900330;29;20055;-79
2022/11/28 02:01:30;;;;;;;8.88;7.82;;;;;;;17.06;51.60;101658.84;4900693;29;20408;-79
2022/11/28 02:03:58;;;;;;;11.85;8.40;;;;;;;17.07;51.50;101665.91;4900310;29;20052;-79
2022/11/28 02:06:27;;;;;;;10.20;8.35;;;;;;;17.06;51.58;101661.53;4882994;29;20052;-79
2022/11/28 02:08:55;;;;;;;10.23;8.23;;;;;;;17.06;51.51;101656.16;4900275;29;20052;-80
2022/11/28 02:11:44;;;;;;;8.82;7.93;;;;;;;17.07;51.45;101651.69;4884655;29;20075;-80
2022/11/28 02:14:48;;;;;;;9.43;8.25;;;;;;;17.06;51.27;101653.50;4900799;29;20056;-80
2022/11/28 02:17:27;;;;;;;10.70;8.50;;;;;;;17.05;51.37;101649.97;4900172;29;20053;-80
2022/11/28 02:19:57;;;;;;;9.80;7.63;;;;;;;17.06;51.45;101658.84;4900131;29;20048;-80
2022/11/28 02:22:36;;;;;;;9.00;7.82;;;;;;;17.05;51.47;101649.06;4900547;29;20051;-79
2022/11/28 02:25:07;;;;;;;9.55;7.68;;;;;;;17.05;51.24;101646.41;4900803;29;20055;-79
2022/11/28 02:27:56;;;;;;;11.63;8.10;;;;;;;17.04;51.29;101648.22;4900338;29;20064;-80
2022/11/28 02:30:37;;;;;;;9.77;8.48;;;;;;;17.04;51.33;101639.34;4900895;29;20056;-79
2022/11/28 02:33:11;;;;;;;11.07;8.77;;;;;;;17.05;51.40;101638.38;4899609;29;20057;-80
2022/11/28 02:36:09;;;;;;;8.68;7.78;;;;;;;17.03;51.47;101643.84;4882629;29;20045;-80
2022/11/28 02:39:04;;;;;;;8.80;7.95;;;;;;;17.03;51.48;101643.84;4900434;29;20470;-80
2022/11/28 02:41:56;;;;;;;8.73;7.20;;;;;;;17.03;51.50;101633.13;4898134;29;20059;-79
2022/11/28 02:44:34;;;;;;;8.18;7.38;;;;;;;17.03;51.28;101635.81;4898257;29;20065;-79
2022/11/28 02:47:08;;;;;;;9.80;8.18;;;;;;;17.02;51.38;101636.78;4900626;29;20056;-79
2022/11/28 02:50:08;;;;;;;10.52;8.10;;;;;;;17.03;51.33;101638.47;4900094;29;20053;-79
2022/11/28 02:52:40;;;;;;;8.45;7.63;;;;;;;17.02;51.34;101627.91;4899794;29;20505;-78
2022/11/28 02:55:08;;;;;;;7.82;6.95;;;;;;;17.02;51.60;101635.91;4901040;29;20053;-79
2022/11/28 02:57:47;;;;;;;9.25;7.72;;;;;;;17.02;51.39;101628.75;4884100;29;20048;-80
2022/11/28 03:00:25;;;;;;;8.82;7.80;;;;;;;17.02;51.25;101627.91;4901214;29;20385;-80
2022/11/28 03:03:07;;;;;;;9.40;7.15;;;;;;;17.02;51.41;101617.19;4899721;29;20056;-78
2022/11/28 03:05:53;;;;;;;8.68;6.85;;;;;;;17.02;51.29;101617.19;4900059;29;20401;-79
2022/11/28 03:08:38;;;;;;;9.18;7.90;;;;;;;17.02;51.22;101615.38;4882883;29;20417;-79
2022/11/28 03:11:18;;;;;;;10.27;7.88;;;;;;;17.01;51.29;101623.47;4900080;29;20052;-79
2022/11/28 03:14:00;;;;;;;8.73;7.30;;;;;;;17.02;51.38;101622.53;4900019;29;20044;-79
2022/11/28 03:16:43;;;;;;;9.25;7.07;;;;;;;17.02;51.19;101622.53;4900009;29;20405;-79
2022/11/28 03:19:24;;;;;;;9.05;7.80;;;;;;;17.02;51.04;101625.22;4899797;29;20059;-79
2022/11/28 03:22:22;;;;;;;9.88;8.35;;;;;;;17.01;51.31;101619.00;4900849;29;20056;-79
2022/11/28 03:25:27;;;;;;;10.55;7.55;;;;;;;17.01;51.44;101620.81;4900035;29;20044;-79
2022/11/28 03:28:05;;;;;;;7.72;6.70;;;;;;;17.01;51.28;101626.16;4899709;29;20053;-79
2022/11/28 03:30:51;;;;;;;8.98;7.15;;;;;;;17.00;51.29;101622.63;4899135;29;20057;-79
2022/11/28 03:33:22;;;;;;;7.40;6.60;;;;;;;17.00;51.26;101619.09;4899760;29;20064;-79
2022/11/28 03:35:56;;;;;;;9.02;7.28;;;;;;;17.00;51.36;101621.75;4900288;29;20049;-79
2022/11/28 03:38:31;;;;;;;10.57;7.25;;;;;;;17.00;51.29;101613.75;4899819;29;20393;-79
2022/11/28 03:41:02;;;;;;;8.77;6.70;;;;;;;16.99;51.45;101604.88;4899628;29;20052;-79
2022/11/28 03:43:37;;;;;;;7.50;6.63;;;;;;;16.99;51.18;101606.69;4901083;29;20072;-79
2022/11/28 03:46:10;;;;;;;9.65;7.13;;;;;;;16.99;51.35;101604.88;4902938;29;20048;-79
2022/11/28 03:48:41;;;;;;;8.17;6.93;;;;;;;16.99;51.47;101604.88;4902533;29;20056;-79
2022/11/28 03:51:17;;;;;;;7.82;6.78;;;;;;;16.98;51.37;101600.47;4903388;29;20288;-79
2022/11/28 03:53:50;;;;;;;8.90;7.75;;;;;;;17.00;51.38;101597.69;4903497;29;20055;-79
2022/11/28 03:56:29;;;;;;;10.82;7.78;;;;;;;16.98;51.23;101588.91;4903928;29;20049;-79
2022/11/28 03:59:09;;;;;;;9.30;6.78;;;;;;;16.97;51.46;101582.69;4902634;29;20055;-79
2022/11/28 04:01:52;;;;;;;7.75;6.70;;;;;;;16.98;51.27;101583.56;4902797;29;20488;-79
2022/11/28 04:04:39;;;;;;;8.55;7.38;;;;;;;16.97;51.12;101581.81;4900974;29;20048;-79
2022/11/28 04:07:26;;;;;;;9.20;7.03;;;;;;;16.97;51.20;101585.38;4902933;29;20385;-79
2022/11/28 04:10:19;;;;;;;7.13;6.32;;;;;;;16.97;51.25;101588.03;4901538;29;20049;-79
2022/11/28 04:12:55;;;;;;;8.40;7.00;;;;;;;16.97;51.20;101585.38;4902163;29;20055;-79
2022/11/28 04:15:25;;;;;;;7.95;6.57;;;;;;;16.97;51.25;101581.81;4902400;29;20064;-79
2022/11/28 04:18:01;;;;;;;8.95;7.40;;;;;;;16.97;51.23;101581.81;4902656;29;20048;-79
2022/11/28 04:20:35;;;;;;;7.10;6.40;;;;;;;16.97;51.21;101581.81;4900939;29;20056;-79
2022/11/28 04:23:09;;;;;;;7.68;6.13;;;;;;;16.96;51.11;101586.31;4902980;29;20469;-79
2022/11/28 04:25:41;;;;;;;8.80;6.75;;;;;;;16.96;51.27;101577.44;4902307;29;20048;-79
2022/11/28 04:28:15;;;;;;;6.95;6.13;;;;;;;16.96;51.22;101582.78;4902503;29;20048;-79
2022/11/28 04:30:45;;;;;;;6.47;5.88;;;;;;;16.96;51.18;101583.66;4902448;29;20056;-79
2022/11/28 04:33:16;;;;;;;7.45;6.60;;;;;;;16.95;51.17;101589.97;4902327;29;20048;-79
2022/11/28 04:35:48;;;;;;;8.02;6.43;;;;;;;16.95;51.15;101587.28;4902561;29;20049;-79
2022/11/28 04:38:16;;;;;;;9.85;6.70;;;;;;;16.95;51.02;101583.75;4902402;29;20063;-79
2022/11/28 04:40:51;;;;;;;7.20;5.97;;;;;;;16.94;51.08;101584.72;4902307;29;20060;-79
2022/11/28 04:43:26;;;;;;;8.05;6.85;;;;;;;16.95;51.22;101586.44;4901793;29;20052;-78
2022/11/28 04:46:00;;;;;;;8.25;5.80;;;;;;;16.94;51.28;101590.94;4884433;29;20056;-78
2022/11/28 04:48:27;;;;;;;8.75;6.53;;;;;;;16.94;51.29;101590.94;4902188;29;20469;-79
2022/11/28 04:51:11;;;;;;;7.43;6.65;;;;;;;16.95;51.09;101583.75;4902429;29;20059;-80
2022/11/28 04:53:53;;;;;;;7.15;6.13;;;;;;;16.95;51.22;101578.41;4902031;29;20052;-79
2022/11/28 04:56:25;;;;;;;7.20;6.38;;;;;;;16.94;50.96;101582.06;4902634;29;20052;-78
2022/11/28 04:58:52;;;;;;;8.73;6.13;;;;;;;16.94;51.26;101582.06;4902260;29;20052;-78
2022/11/28 05:01:26;;;;;;;7.70;5.97;;;;;;;16.93;51.07;101581.16;4899656;29;20300;-79
2022/11/28 05:03:54;;;;;;;8.60;6.40;;;;;;;16.94;51.05;101580.22;4901969;29;20060;-78
2022/11/28 05:06:25;;;;;;;6.25;5.28;;;;;;;16.94;51.10;101576.69;4901278;29;20049;-78
2022/11/28 05:08:52;;;;;;;8.48;6.25;;;;;;;16.93;50.95;101580.31;4902031;29;20055;-79
2022/11/28 05:11:20;;;;;;;6.72;5.50;;;;;;;16.93;51.27;101577.63;4901476;29;20478;-78
2022/11/28 05:13:47;;;;;;;7.57;5.75;;;;;;;16.93;51.19;101577.63;4901446;29;20055;-79
2022/11/28 05:16:15;;;;;;;7.78;6.35;;;;;;;16.93;51.16;101573.13;4901404;29;20048;-79
2022/11/28 05:18:43;;;;;;;6.72;6.03;;;;;;;16.93;51.16;101574.97;4900727;29;20045;-79
2022/11/28 05:21:10;;;;;;;6.80;5.82;;;;;;;16.93;51.12;101564.25;4900737;29;20141;-79
2022/11/28 05:23:40;;;;;;;8.10;6.15;;;;;;;16.92;51.32;101568.75;4901524;29;20055;-78
2022/11/28 05:26:09;;;;;;;7.88;5.78;;;;;;;16.92;51.19;101565.22;4901027;29;20067;-78
2022/11/28 05:28:37;;;;;;;7.20;6.25;;;;;;;16.93;51.29;101561.59;4900976;29;20053;-79
2022/11/28 05:31:04;;;;;;;7.38;5.80;;;;;;;16.92;51.21;101562.56;4900758;29;20048;-79
2022/11/28 05:33:32;;;;;;;8.73;6.35;;;;;;;16.91;51.39;101553.69;4900776;29;20052;-79
2022/11/28 05:36:04;;;;;;;7.72;6.00;;;;;;;16.92;51.34;101555.38;4900747;29;20052;-79
2022/11/28 05:38:38;;;;;;;8.35;6.32;;;;;;;16.92;51.23;101546.50;4901692;29;20060;-79
2022/11/28 05:41:06;;;;;;;6.97;5.43;;;;;;;16.91;51.30;101542.97;4899527;29;20071;-79
2022/11/28 05:43:33;;;;;;;7.53;5.97;;;;;;;16.91;51.22;101545.66;4899616;29;20063;-79
2022/11/28 05:46:03;;;;;;;7.22;5.75;;;;;;;16.91;51.43;101552.81;4901613;29;20045;-79
2022/11/28 05:48:31;;;;;;;8.10;5.78;;;;;;;16.91;51.22;101556.34;4901058;29;20060;-78
2022/11/28 05:50:58;;;;;;;6.72;5.50;;;;;;;16.90;51.11;101554.63;4901126;29;20056;-78
2022/11/28 05:53:26;;;;;;;6.53;5.22;;;;;;;16.92;51.33;101549.19;4900915;29;20052;-79
2022/11/28 05:55:53;;;;;;;7.25;5.90;;;;;;;16.91;51.32;101550.16;4898840;29;20052;-78
2022/11/28 05:58:20;;;;;;;7.30;5.55;;;;;;;16.90;51.50;101551.09;4899348;29;20059;-80
2022/11/28 06:00:48;;;;;;;6.70;5.22;;;;;;;16.89;51.40;101552.91;4883399;29;20056;-80
2022/11/28 06:03:15;;;;;;;6.80;5.47;;;;;;;16.90;51.42;101554.63;4901397;29;20056;-80
2022/11/28 06:05:43;;;;;;;7.50;5.30;;;;;;;16.89;51.48;101541.34;4899844;29;20044;-80
2022/11/28 06:08:11;;;;;;;6.78;5.40;;;;;;;16.90;51.35;101548.44;4900007;29;20052;-79
2022/11/28 06:10:39;;;;;;;7.50;5.20;;;;;;;16.90;51.34;101545.75;4900737;29;20533;-80
2022/11/28 06:13:06;;;;;;;7.00;5.55;;;;;;;16.90;51.35;101548.44;4900473;29;20075;-87
2022/11/28 06:15:34;;;;;;;8.23;5.50;;;;;;;16.90;51.31;101551.09;4898000;29;20059;-78
2022/11/28 06:18:04;;;;;;;7.05;5.40;;;;;;;16.89;51.17;101549.38;4902109;29;20049;-78
2022/11/28 06:20:34;;;;;;;8.55;5.50;;;;;;;16.89;51.30;101544.03;4901525;29;20060;-79
2022/11/28 06:23:01;;;;;;;8.45;5.85;;;;;;;16.90;51.50;101535.06;4901048;29;20055;-79
2022/11/28 06:25:29;;;;;;;6.28;4.85;;;;;;;16.89;51.34;101542.19;4900194;29;20051;-79
2022/11/28 06:27:56;;;;;;;6.43;5.00;;;;;;;16.89;51.24;101530.66;4899970;29;20053;-80
2022/11/28 06:30:23;;;;;;;7.07;5.50;;;;;;;16.88;51.54;101531.63;4898811;29;20055;-79
2022/11/28 06:32:51;;;;;;;8.85;5.68;;;;;;;16.89;51.34;101536.00;4898663;29;20057;-81
2022/11/28 06:35:18;;;;;;;7.45;5.72;;;;;;;16.89;50.93;101530.66;4898409;29;20053;-81
2022/11/28 06:37:46;;;;;;;7.75;5.63;;;;;;;16.89;51.35;101536.00;4884108;29;20063;-78
2022/11/28 06:40:14;;;;;;;10.00;5.10;;;;;;;16.88;51.55;101527.13;4900117;29;20051;-79
2022/11/28 06:42:41;;;;;;;7.13;5.43;;;;;;;16.89;51.47;101525.31;4899528;29;20505;-79
2022/11/28 06:45:09;;;;;;;7.25;5.13;;;;;;;16.88;51.32;101520.91;4899837;29;20048;-78
2022/11/28 06:47:36;;;;;;;8.30;5.55;;;;;;;16.88;51.42;101516.41;4900104;29;20052;-78
2022/11/28 06:50:05;;;;;;;6.55;5.38;;;;;;;16.89;51.42;101506.56;4900090;29;20056;-78
2022/11/28 06:52:32;;;;;;;5.15;4.57;;;;;;;16.88;51.22;101507.53;4900190;29;20065;-78
2022/11/28 06:54:59;;;;;;;7.30;5.38;;;;;;;16.87;51.21;101504.03;4898324;29;20059;-78
2022/11/28 06:57:26;;;;;;;6.72;5.03;;;;;;;16.88;51.27;101502.19;4898226;29;20497;-79
2022/11/28 06:59:54;;;;;;;6.22;5.25;;;;;;;16.88;51.21;101507.53;4899965;29;20059;-78
2022/11/28 07:02:23;;;;;;;6.35;5.18;;;;;;;16.87;51.36;101500.47;4899710;29;20473;-79
2022/11/28 07:04:51;;;;;;;6.72;5.30;;;;;;;16.87;51.33;101492.47;4897550;29;20045;-80
2022/11/28 07:07:18;;;;;;;6.55;4.53;;;;;;;16.87;51.18;101497.81;4899238;29;20421;-79
2022/11/28 07:09:46;;;;;;;6.60;4.22;;;;;;;16.86;51.28;101486.25;4898908;29;20413;-79
2022/11/28 07:12:13;;;;;;;7.07;4.38;;;;;;;16.86;51.38;101490.75;4898191;29;20071;-79
2022/11/28 07:14:41;;;;;;;6.25;5.65;;;;;;;16.86;51.25;101488.94;4898142;29;20056;-79
2022/11/28 07:17:08;;;;;;;5.57;4.57;;;;;;;16.87;51.16;101476.41;4899427;29;20047;-79
2022/11/28 07:19:36;;;;;;;6.30;5.10;;;;;;;16.87;51.24;101465.72;4901885;29;20047;-79
2022/11/28 07:22:03;;;;;;;6.45;4.93;;;;;;;16.86;51.49;101472.03;4903071;29;20048;-80
2022/11/28 07:24:30;;;;;;;6.47;4.82;;;;;;;16.85;51.29;101473.81;4902294;29;20064;-79
2022/11/28 07:26:57;;;;;;;6.82;5.28;;;;;;;16.85;51.41;101465.81;4904384;29;20056;-80
2022/11/28 07:29:29;;;;;;;6.75;4.50;;;;;;;16.85;51.18;101463.13;4903472;29;20053;-80
2022/11/28 07:31:56;;;;;;;6.78;4.95;;;;;;;16.85;51.24;101454.25;4903899;29;20056;-80
2022/11/28 07:34:24;;;;;;;6.80;5.07;;;;;;;16.85;51.13;101451.56;4903253;29;20071;-80
2022/11/28 07:36:51;;;;;;;7.78;4.72;;;;;;;16.85;51.29;101451.56;4903166;29;20053;-80
2022/11/28 07:39:18;;;;;;;5.22;4.57;;;;;;;16.86;51.38;101466.69;4904202;29;20060;-79
2022/11/28 07:41:46;;;;;;;5.85;4.75;;;;;;;16.84;51.41;101464.09;4904283;29;20044;-79
2022/11/28 07:44:16;;;;;;;5.00;4.05;;;;;;;16.84;51.24;101469.44;4903899;29;20073;-79
2022/11/28 07:46:44;;;;;;;5.72;4.78;;;;;;;16.85;51.04;101471.16;4903869;29;20044;-80
2022/11/28 07:49:13;;;;;;;5.82;4.97;;;;;;;16.84;51.24;101465.91;4903831;29;20056;-80
2022/11/28 07:51:40;;;;;;;7.13;4.93;;;;;;;16.84;51.24;101471.25;4886072;29;20416;-79
2022/11/28 07:54:08;;;;;;;6.72;5.47;;;;;;;16.83;51.23;101475.75;4902950;29;20048;-80
2022/11/28 07:56:37;;;;;;;7.03;5.20;;;;;;;16.84;51.06;101471.25;4903393;29;20052;-80
2022/11/28 07:59:24;;;;;;;6.00;4.88;;;;;;;16.84;51.15;101469.44;4903149;29;20060;-80
2022/11/28 08:01:52;;;;;;;7.28;5.30;;;;;;;16.84;51.25;101473.94;4902429;29;20053;-76
2022/11/28 08:04:20;;;;;;;8.50;5.47;;;;;;;16.85;51.29;101479.16;4903107;29;20470;-80
2022/11/28 08:06:47;;;;;;;8.57;5.93;;;;;;;16.84;51.06;101480.13;4902685;29;20052;-80
2022/11/28 08:09:15;;;;;;;6.07;4.80;;;;;;;16.85;50.95;101481.00;4902332;29;20060;-80
2022/11/28 08:11:42;;;;;;;6.35;5.22;;;;;;;16.85;51.11;101475.66;4901044;29;20064;-79
2022/11/28 08:14:10;;;;;;;6.60;5.13;;;;;;;16.85;51.11;101478.31;4902625;29;20405;-78
2022/11/28 08:16:40;;;;;;;8.32;4.90;;;;;;;16.85;50.97;101472.97;4902435;29;20059;-79
2022/11/28 08:19:07;;;;;;;6.13;4.60;;;;;;;16.85;51.12;101479.16;4902629;29;20061;-79
2022/11/28 08:21:35;;;;;;;7.75;5.03;;;;;;;16.84;51.08;101479.28;4902171;29;20052;-79
2022/11/28 08:24:04;;;;;;;7.40;5.43;;;;;;;16.84;51.23;101482.81;4901740;29;20516;-81
2022/11/28 08:26:31;;;;;;;8.43;4.95;;;;;;;16.84;51.20;101482.81;4901977;29;20044;-79
2022/11/28 08:29:01;;;;;;;10.48;5.75;;;;;;;16.84;51.31;101477.47;4900868;29;20409;-82
2022/11/28 08:31:34;;;;;;;8.75;5.20;;;;;;;16.84;51.38;101477.47;4901666;29;20052;-81
2022/11/28 08:34:05;;;;;;;7.22;5.53;;;;;;;16.84;50.33;101479.28;4911250;29;20048;-79
2022/11/28 08:36:32;;;;;;;8.13;6.57;;;;;;;16.83;49.94;101466.88;4903983;29;20048;-78
2022/11/28 08:39:01;;;;;;;12.25;6.43;;;;;;;16.82;50.16;101479.41;4920444;29;20051;-79
2022/11/28 08:41:48;;;;;;;8.63;6.20;;;;;;;16.83;49.64;101477.56;4920910;29;20054;-79
2022/11/28 08:44:16;;;;;;;9.60;8.10;;;;;;;16.82;48.70;101481.22;4920766;29;20401;-80
2022/11/28 08:46:43;;;;;;;10.05;7.38;;;;;;;16.79;48.63;101485.78;4920498;29;20048;-80
2022/11/28 08:49:10;;;;;;;10.75;8.30;;;;;;;16.77;47.73;101479.69;4930662;29;20496;-79
2022/11/28 08:51:37;;;;;;;10.75;8.75;;;;;;;16.75;47.63;101481.59;4939890;29;20055;-80
2022/11/28 08:54:05;;;;;;;12.45;8.40;;;;;;;16.73;47.51;101486.19;4923158;29;20062;-80
2022/11/28 08:56:33;;;;;;;11.82;8.57;;;;;;;16.72;47.48;101492.44;4939550;29;20480;-80
2022/11/28 08:59:00;;;;;;;10.98;8.15;;;;;;;16.71;47.67;101488.06;4939485;29;20048;-80
2022/11/28 09:01:27;;;;;;;12.55;8.90;;;;;;;16.70;47.01;101485.50;4922900;29;20058;-80
2022/11/28 09:03:55;;;;;;;10.45;8.95;;;;;;;16.69;47.05;101481.09;4939565;29;20059;-80
2022/11/28 09:06:23;;;;;;;10.93;8.82;;;;;;;16.67;47.05;101475.84;4939350;29;20054;-80
2022/11/28 09:08:52;;;;;;;9.90;7.60;;;;;;;16.67;47.54;101472.31;4939411;29;20051;-80
2022/11/28 09:11:21;;;;;;;9.70;7.88;;;;;;;16.68;48.24;101480.22;4923443;29;20490;-79
2022/11/28 09:13:49;;;;;;;11.35;8.18;;;;;;;16.67;47.10;101489.22;4939132;29;20047;-80
2022/11/28 09:16:17;;;;;;;10.32;8.05;;;;;;;16.67;46.80;101485.69;4939680;29;20056;-80
2022/11/28 09:18:44;;;;;;;12.63;8.85;;;;;;;16.66;46.46;101482.16;4939417;29;20373;-80
2022/11/28 09:21:14;;;;;;;13.45;9.65;;;;;;;16.64;46.15;101481.41;4938578;29;20051;-79
2022/11/28 09:23:43;;;;;;;10.82;8.95;;;;;;;16.63;46.04;101485.03;4938784;29;20047;-80
2022/11/28 09:26:14;;;;;;;10.18;8.65;;;;;;;16.63;46.53;101474.34;4925490;29;20059;-81
2022/11/28 09:28:42;;;;;;;9.88;7.50;;;;;;;16.62;47.66;101477.97;4939400;29;20048;-83
2022/11/28 09:31:11;;;;;;;8.35;6.68;;;;;;;16.63;48.38;101469.00;4921170;29;20063;-81
2022/11/28 09:33:39;;;;;;;9.35;7.05;;;;;;;16.64;48.36;101465.34;4929996;29;20056;-81
2022/11/28 09:36:09;;;;;;;7.68;6.20;;;;;;;16.66;48.17;101467.94;4903234;29;20052;-80
2022/11/28 09:38:36;;;;;;;9.38;6.63;;;;;;;16.67;48.45;101456.28;4902504;29;20059;-80
2022/11/28 09:41:38;;;;;;;10.98;6.15;;;;;;;16.68;48.62;101464.19;4918333;29;20137;-78
2022/11/28 09:44:30;;;;;;;11.82;5.75;;;;;;;16.70;48.68;101464.13;4919552;29;20052;-78
2022/11/28 09:47:03;;;;;;;8.65;6.45;;;;;;;16.71;48.50;101457.81;4919258;29;20063;-80
2022/11/28 09:49:39;;;;;;;8.93;6.53;;;;;;;16.71;48.35;101457.81;4902704;29;20063;-80
2022/11/28 09:52:10;;;;;;;8.18;5.78;;;;;;;16.72;48.69;101462.19;4919576;29;20048;-80
2022/11/28 09:54:52;;;;;;;7.75;5.90;;;;;;;16.71;48.83;101458.66;4919289;29;20059;-79
2022/11/28 09:57:36;;;;;;;10.18;5.50;;;;;;;16.71;48.75;101457.81;4919271;29;20052;-79
2022/11/28 10:00:05;;;;;;;6.53;5.18;;;;;;;16.71;48.99;101449.78;4918947;29;20492;-79
2022/11/28 10:03:00;;;;;;;7.40;6.25;;;;;;;16.72;48.85;101454.16;4925446;29;20072;-79
2022/11/28 10:05:39;;;;;;;6.97;5.55;;;;;;;16.72;48.81;101455.03;4899944;29;20056;-80
2022/11/28 10:08:40;;;;;;;6.63;4.82;;;;;;;16.71;48.95;101436.41;4900077;29;20103;-80
2022/11/28 10:11:29;;;;;;;7.78;5.07;;;;;;;16.71;48.93;101426.56;4878522;29;20526;-78
2022/11/28 10:14:18;;;;;;;7.60;5.75;;;;;;;16.71;48.99;101429.25;4879057;29;20061;-79
2022/11/28 10:17:23;;;;;;;7.53;5.45;;;;;;;16.70;48.97;101424.88;4879765;29;20065;-77
2022/11/28 10:19:57;;;;;;;6.13;5.10;;;;;;;16.70;49.19;101414.19;4879633;29;20084;-79
2022/11/28 10:22:34;;;;;;;6.60;4.47;;;;;;;16.70;49.22;101407.97;4879497;29;20068;-80
2022/11/28 10:25:11;;;;;;;7.45;5.30;;;;;;;16.70;49.06;101392.78;4878785;29;20473;-79
2022/11/28 10:27:39;;;;;;;7.35;5.53;;;;;;;16.70;49.33;101398.13;4877213;29;20049;-80
2022/11/28 10:30:27;;;;;;;6.85;4.80;;;;;;;16.71;49.13;101390.97;4862113;29;20057;-79
2022/11/28 10:33:18;;;;;;;6.43;4.85;;;;;;;16.69;49.21;101391.06;4877615;29;20061;-79
2022/11/28 10:35:55;;;;;;;8.95;5.20;;;;;;;16.70;49.12;101395.47;4861659;29;20057;-79
2022/11/28 10:38:26;;;;;;;7.95;5.15;;;;;;;16.69;49.21;101391.06;4877062;29;20049;-78
2022/11/28 10:40:59;;;;;;;6.43;5.47;;;;;;;16.69;49.34;101391.06;4877922;29;20061;-79
2022/11/28 10:43:42;;;;;;;9.10;5.93;;;;;;;16.69;49.25;101385.72;4877059;29;20073;-79
2022/11/28 10:46:22;;;;;;;8.68;5.03;;;;;;;16.69;49.45;101390.19;4877811;29;20382;-79
2022/11/28 10:48:52;;;;;;;6.82;4.68;;;;;;;16.69;49.44;101384.84;4910392;29;20060;-79
2022/11/28 10:51:45;;;;;;;9.05;5.13;;;;;;;16.69;49.37;101391.06;4917819;29;20055;-80
2022/11/28 10:54:43;;;;;;;6.45;5.20;;;;;;;16.68;49.52;101384.00;4923336;29;20040;-80
2022/11/28 10:57:20;;;;;;;9.00;5.43;;;;;;;16.68;49.63;101375.97;4906907;29;20052;-79
2022/11/28 11:00:13;;;;;;;7.25;5.15;;;;;;;16.69;49.62;101372.38;4923521;29;20048;-79
2022/11/28 11:02:49;;;;;;;6.28;4.93;;;;;;;16.68;49.45;101373.31;4923873;29;20052;-79
2022/11/28 11:05:25;;;;;;;6.22;5.22;;;;;;;16.68;49.52;101377.78;4923960;29;20048;-79
2022/11/28 11:07:56;;;;;;;6.05;4.57;;;;;;;16.69;49.70;101374.16;4923829;29;20472;-79
2022/11/28 11:10:37;;;;;;;8.15;6.05;;;;;;;16.68;49.64;101373.31;4923539;29;20047;-79
2022/11/28 11:13:25;;;;;;;8.27;5.90;;;;;;;16.69;49.68;101385.72;4923907;29;20055;-78
2022/11/28 11:15:59;;;;;;;6.57;5.47;;;;;;;16.69;49.80;101379.50;4923697;29;20048;-79
2022/11/28 11:18:31;;;;;;;6.18;5.45;;;;;;;16.70;49.82;101386.59;4923397;29;20052;-84
2022/11/28 11:21:14;;;;;;;7.35;5.20;;;;;;;16.70;49.51;101375.88;4902838;29;20060;-83
2022/11/28 11:23:43;;;;;;;9.45;5.40;;;;;;;16.70;50.10;101371.41;4904960;29;20052;-83
2022/11/28 11:26:28;;;;;;;7.97;6.00;;;;;;;16.71;50.29;101374.94;4903980;29;20052;-83
2022/11/28 11:28:55;;;;;;;7.90;5.50;;;;;;;16.70;50.42;101366.06;4906295;29;20052;-83
2022/11/28 11:31:30;;;;;;;7.57;5.50;;;;;;;16.71;50.40;101374.94;4905849;29;20055;-83
2022/11/28 11:34:05;;;;;;;6.68;5.20;;;;;;;16.71;50.42;101372.25;4905979;29;20044;-84
2022/11/28 11:36:35;;;;;;;6.75;4.78;;;;;;;16.71;50.52;101369.56;4888911;29;20057;-83
2022/11/28 11:39:09;;;;;;;7.55;5.47;;;;;;;16.72;50.63;101368.63;4905940;29;20045;-83
2022/11/28 11:41:43;;;;;;;9.65;6.18;;;;;;;16.71;50.80;101364.22;4904602;29;20056;-84
2022/11/28 11:44:13;;;;;;;7.43;5.53;;;;;;;16.72;51.91;101363.25;4887202;29;20063;-83
2022/11/28 11:46:53;;;;;;;6.28;5.43;;;;;;;16.71;52.88;101362.41;4904192;29;20097;-80
2022/11/28 11:49:48;;;;;;;19.63;11.25;;;;;;;16.73;56.48;101359.66;4904598;29;20051;-86